sensor_id;sensor_type;location;lat;lon;timestamp;temperature;humidity
45803;DHT22;31504;51.716;9.184;2022-12-11T00:01:59;19.40;38.40
45803;DHT22;31504;51.716;9.184;2022-12-11T00:05:00;19.40;38.40
45803;DHT22;31504;51.716;9.184;2022-12-11T00:08:00;19.50;38.50
45803;DHT22;31504;51.716;9.184;2022-12-11T00:11:00;19.50;38.40
45803;DHT22;31504;51.716;9.184;2022-12-11T00:14:01;19.40;38.40
45803;DHT22;31504;51.716;9.184;2022-12-11T00:17:02;19.50;38.40
45803;DHT22;31504;51.716;9.184;2022-12-11T00:20:02;19.40;38.40
45803;DHT22;31504;51.716;9.184;2022-12-11T00:23:04;19.40;38.40
45803;DHT22;31504;51.716;9.184;2022-12-11T00:26:05;19.40;38.40
45803;DHT22;31504;51.716;9.184;2022-12-11T00:29:06;19.40;38.40
45803;DHT22;31504;51.716;9.184;2022-12-11T00:32:08;19.40;38.30
45803;DHT22;31504;51.716;9.184;2022-12-11T00:35:08;19.40;38.30
45803;DHT22;31504;51.716;9.184;2022-12-11T00:38:13;19.40;38.30
45803;DHT22;31504;51.716;9.184;2022-12-11T00:41:14;19.40;38.30
45803;DHT22;31504;51.716;9.184;2022-12-11T00:44:15;19.40;38.30
45803;DHT22;31504;51.716;9.184;2022-12-11T00:47:15;19.40;38.30
45803;DHT22;31504;51.716;9.184;2022-12-11T00:50:16;19.40;38.90
45803;DHT22;31504;51.716;9.184;2022-12-11T00:53:16;19.40;38.20
45803;DHT22;31504;51.716;9.184;2022-12-11T00:56:18;19.40;38.30
45803;DHT22;31504;51.716;9.184;2022-12-11T00:59:19;19.40;38.30
45803;DHT22;31504;51.716;9.184;2022-12-11T01:02:19;19.40;38.30
45803;DHT22;31504;51.716;9.184;2022-12-11T01:05:20;19.40;38.20
45803;DHT22;31504;51.716;9.184;2022-12-11T01:08:20;19.40;38.20
45803;DHT22;31504;51.716;9.184;2022-12-11T01:11:21;19.40;38.30
45803;DHT22;31504;51.716;9.184;2022-12-11T01:14:21;19.40;38.20
45803;DHT22;31504;51.716;9.184;2022-12-11T01:17:22;19.40;38.20
45803;DHT22;31504;51.716;9.184;2022-12-11T01:20:23;19.40;38.20
45803;DHT22;31504;51.716;9.184;2022-12-11T01:23:24;19.40;38.20
45803;DHT22;31504;51.716;9.184;2022-12-11T01:26:24;19.40;38.20
45803;DHT22;31504;51.716;9.184;2022-12-11T01:29:24;19.40;38.20
45803;DHT22;31504;51.716;9.184;2022-12-11T01:32:26;19.40;38.20
45803;DHT22;31504;51.716;9.184;2022-12-11T01:35:26;19.40;38.20
45803;DHT22;31504;51.716;9.184;2022-12-11T01:38:27;19.40;38.20
45803;DHT22;31504;51.716;9.184;2022-12-11T01:41:28;19.40;38.10
45803;DHT22;31504;51.716;9.184;2022-12-11T01:47:28;19.40;38.10
45803;DHT22;31504;51.716;9.184;2022-12-11T01:50:29;19.40;38.10
45803;DHT22;31504;51.716;9.184;2022-12-11T01:53:32;19.40;38.10
45803;DHT22;31504;51.716;9.184;2022-12-11T01:56:33;19.40;38.10
45803;DHT22;31504;51.716;9.184;2022-12-11T01:59:36;19.40;38.10
45803;DHT22;31504;51.716;9.184;2022-12-11T02:02:36;19.30;38.00
45803;DHT22;31504;51.716;9.184;2022-12-11T02:05:37;19.30;38.00
45803;DHT22;31504;51.716;9.184;2022-12-11T02:08:38;19.40;38.00
45803;DHT22;31504;51.716;9.184;2022-12-11T02:11:41;19.40;38.00
45803;DHT22;31504;51.716;9.184;2022-12-11T02:17:45;19.30;38.00
45803;DHT22;31504;51.716;9.184;2022-12-11T02:20:57;19.30;38.00
45803;DHT22;31504;51.716;9.184;2022-12-11T02:24:00;19.30;38.00
45803;DHT22;31504;51.716;9.184;2022-12-11T02:27:09;19.30;38.00
45803;DHT22;31504;51.716;9.184;2022-12-11T02:30:11;19.30;38.00
45803;DHT22;31504;51.716;9.184;2022-12-11T02:33:13;19.30;37.90
45803;DHT22;31504;51.716;9.184;2022-12-11T02:36:14;19.30;37.90
45803;DHT22;31504;51.716;9.184;2022-12-11T02:39:16;19.30;37.90
45803;DHT22;31504;51.716;9.184;2022-12-11T02:42:18;19.30;37.90
45803;DHT22;31504;51.716;9.184;2022-12-11T02:45:19;19.30;38.00
45803;DHT22;31504;51.716;9.184;2022-12-11T02:48:21;19.30;37.90
45803;DHT22;31504;51.716;9.184;2022-12-11T02:51:27;19.30;37.90
45803;DHT22;31504;51.716;9.184;2022-12-11T02:54:31;19.30;38.00
45803;DHT22;31504;51.716;9.184;2022-12-11T02:57:41;19.30;37.90
45803;DHT22;31504;51.716;9.184;2022-12-11T03:00:44;19.30;37.90
45803;DHT22;31504;51.716;9.184;2022-12-11T03:03:44;19.30;37.90
45803;DHT22;31504;51.716;9.184;2022-12-11T03:06:46;19.30;37.90
45803;DHT22;31504;51.716;9.184;2022-12-11T03:09:48;19.30;37.90
45803;DHT22;31504;51.716;9.184;2022-12-11T03:12:49;19.30;37.90
45803;DHT22;31504;51.716;9.184;2022-12-11T03:15:55;19.30;37.90
45803;DHT22;31504;51.716;9.184;2022-12-11T03:22:25;19.30;37.90
45803;DHT22;31504;51.716;9.184;2022-12-11T03:25:31;19.30;37.90
45803;DHT22;31504;51.716;9.184;2022-12-11T03:28:40;19.30;37.80
45803;DHT22;31504;51.716;9.184;2022-12-11T03:31:44;19.30;37.90
45803;DHT22;31504;51.716;9.184;2022-12-11T03:35:07;19.30;37.90
45803;DHT22;31504;51.716;9.184;2022-12-11T03:38:15;19.30;37.80
45803;DHT22;31504;51.716;9.184;2022-12-11T03:41:17;19.30;37.80
45803;DHT22;31504;51.716;9.184;2022-12-11T03:44:19;19.30;37.80
45803;DHT22;31504;51.716;9.184;2022-12-11T03:47:20;19.30;37.80
45803;DHT22;31504;51.716;9.184;2022-12-11T03:50:21;19.30;37.80
45803;DHT22;31504;51.716;9.184;2022-12-11T03:53:24;19.30;37.80
45803;DHT22;31504;51.716;9.184;2022-12-11T03:56:26;19.30;37.80
45803;DHT22;31504;51.716;9.184;2022-12-11T03:59:27;19.30;37.80
45803;DHT22;31504;51.716;9.184;2022-12-11T04:02:28;19.30;37.80
45803;DHT22;31504;51.716;9.184;2022-12-11T04:05:28;19.30;37.80
45803;DHT22;31504;51.716;9.184;2022-12-11T04:08:29;19.30;37.80
45803;DHT22;31504;51.716;9.184;2022-12-11T04:11:29;19.30;37.80
45803;DHT22;31504;51.716;9.184;2022-12-11T04:14:36;19.30;37.80
45803;DHT22;31504;51.716;9.184;2022-12-11T04:17:54;19.30;37.70
45803;DHT22;31504;51.716;9.184;2022-12-11T04:21:14;19.30;37.70
45803;DHT22;31504;51.716;9.184;2022-12-11T04:24:33;19.30;37.80
45803;DHT22;31504;51.716;9.184;2022-12-11T04:27:33;19.30;37.70
45803;DHT22;31504;51.716;9.184;2022-12-11T04:30:49;19.30;37.80
45803;DHT22;31504;51.716;9.184;2022-12-11T04:33:49;19.30;37.80
45803;DHT22;31504;51.716;9.184;2022-12-11T04:36:50;19.30;37.80
45803;DHT22;31504;51.716;9.184;2022-12-11T04:39:50;19.30;37.70
45803;DHT22;31504;51.716;9.184;2022-12-11T04:42:51;19.30;37.80
45803;DHT22;31504;51.716;9.184;2022-12-11T04:45:59;19.30;37.80
45803;DHT22;31504;51.716;9.184;2022-12-11T04:48:59;19.30;37.70
45803;DHT22;31504;51.716;9.184;2022-12-11T04:51:59;19.30;37.70
45803;DHT22;31504;51.716;9.184;2022-12-11T04:55:00;19.30;37.70
45803;DHT22;31504;51.716;9.184;2022-12-11T04:58:00;19.30;37.70
45803;DHT22;31504;51.716;9.184;2022-12-11T05:01:07;19.30;37.70
45803;DHT22;31504;51.716;9.184;2022-12-11T05:04:08;19.30;37.70
45803;DHT22;31504;51.716;9.184;2022-12-11T05:07:09;19.30;37.70
45803;DHT22;31504;51.716;9.184;2022-12-11T05:10:09;19.30;37.70
45803;DHT22;31504;51.716;9.184;2022-12-11T05:13:10;19.30;37.70
45803;DHT22;31504;51.716;9.184;2022-12-11T05:16:11;19.30;37.70
45803;DHT22;31504;51.716;9.184;2022-12-11T05:19:12;19.30;37.70
45803;DHT22;31504;51.716;9.184;2022-12-11T05:22:12;19.30;37.80
45803;DHT22;31504;51.716;9.184;2022-12-11T05:25:13;19.30;37.70
45803;DHT22;31504;51.716;9.184;2022-12-11T05:28:13;19.30;37.70
45803;DHT22;31504;51.716;9.184;2022-12-11T05:31:14;19.30;37.70
45803;DHT22;31504;51.716;9.184;2022-12-11T05:34:16;19.30;37.70
45803;DHT22;31504;51.716;9.184;2022-12-11T05:37:16;19.30;37.70
45803;DHT22;31504;51.716;9.184;2022-12-11T05:40:17;19.30;37.70
45803;DHT22;31504;51.716;9.184;2022-12-11T05:43:17;19.20;37.70
45803;DHT22;31504;51.716;9.184;2022-12-11T05:46:20;19.30;37.80
45803;DHT22;31504;51.716;9.184;2022-12-11T05:49:20;19.20;37.70
45803;DHT22;31504;51.716;9.184;2022-12-11T05:52:21;19.20;37.60
45803;DHT22;31504;51.716;9.184;2022-12-11T05:55:21;19.30;37.70
45803;DHT22;31504;51.716;9.184;2022-12-11T05:58:21;19.30;37.70
45803;DHT22;31504;51.716;9.184;2022-12-11T06:01:26;19.30;37.70
45803;DHT22;31504;51.716;9.184;2022-12-11T06:04:27;19.20;37.70
45803;DHT22;31504;51.716;9.184;2022-12-11T06:07:27;19.30;37.70
45803;DHT22;31504;51.716;9.184;2022-12-11T06:10:28;19.20;37.70
45803;DHT22;31504;51.716;9.184;2022-12-11T06:13:28;19.20;37.70
45803;DHT22;31504;51.716;9.184;2022-12-11T06:16:29;19.30;37.80
45803;DHT22;31504;51.716;9.184;2022-12-11T06:19:29;19.30;37.70
45803;DHT22;31504;51.716;9.184;2022-12-11T06:22:30;19.30;37.60
45803;DHT22;31504;51.716;9.184;2022-12-11T06:25:30;19.30;37.60
45803;DHT22;31504;51.716;9.184;2022-12-11T06:28:31;19.30;38.20
45803;DHT22;31504;51.716;9.184;2022-12-11T06:31:31;19.30;37.60
45803;DHT22;31504;51.716;9.184;2022-12-11T06:34:32;19.40;37.70
45803;DHT22;31504;51.716;9.184;2022-12-11T06:37:33;19.40;37.70
45803;DHT22;31504;51.716;9.184;2022-12-11T06:40:34;19.40;37.70
45803;DHT22;31504;51.716;9.184;2022-12-11T06:43:34;19.40;37.60
45803;DHT22;31504;51.716;9.184;2022-12-11T06:46:35;19.40;37.70
45803;DHT22;31504;51.716;9.184;2022-12-11T06:49:36;19.40;37.70
45803;DHT22;31504;51.716;9.184;2022-12-11T06:52:36;19.40;37.70
45803;DHT22;31504;51.716;9.184;2022-12-11T06:55:37;19.40;37.70
45803;DHT22;31504;51.716;9.184;2022-12-11T06:58:37;19.40;37.70
45803;DHT22;31504;51.716;9.184;2022-12-11T07:01:38;19.40;37.70
45803;DHT22;31504;51.716;9.184;2022-12-11T07:04:40;19.40;37.70
45803;DHT22;31504;51.716;9.184;2022-12-11T07:07:40;19.40;37.70
45803;DHT22;31504;51.716;9.184;2022-12-11T07:10:41;19.40;37.70
45803;DHT22;31504;51.716;9.184;2022-12-11T07:13:41;19.40;37.70
45803;DHT22;31504;51.716;9.184;2022-12-11T07:16:42;19.40;37.70
45803;DHT22;31504;51.716;9.184;2022-12-11T07:19:43;19.40;37.70
45803;DHT22;31504;51.716;9.184;2022-12-11T07:22:43;19.40;37.70
45803;DHT22;31504;51.716;9.184;2022-12-11T07:25:44;19.40;37.80
45803;DHT22;31504;51.716;9.184;2022-12-11T07:28:44;19.40;37.80
45803;DHT22;31504;51.716;9.184;2022-12-11T07:31:45;19.40;37.70
45803;DHT22;31504;51.716;9.184;2022-12-11T07:34:47;19.40;37.70
45803;DHT22;31504;51.716;9.184;2022-12-11T07:37:47;19.40;37.70
45803;DHT22;31504;51.716;9.184;2022-12-11T07:40:48;19.40;37.70
45803;DHT22;31504;51.716;9.184;2022-12-11T07:43:48;19.40;37.80
45803;DHT22;31504;51.716;9.184;2022-12-11T07:46:48;19.40;37.80
45803;DHT22;31504;51.716;9.184;2022-12-11T07:49:49;19.40;37.80
45803;DHT22;31504;51.716;9.184;2022-12-11T07:52:49;19.40;37.80
45803;DHT22;31504;51.716;9.184;2022-12-11T07:55:50;19.40;37.80
45803;DHT22;31504;51.716;9.184;2022-12-11T07:58:50;19.40;37.90
45803;DHT22;31504;51.716;9.184;2022-12-11T08:01:51;19.40;38.40
45803;DHT22;31504;51.716;9.184;2022-12-11T08:04:51;19.50;38.60
45803;DHT22;31504;51.716;9.184;2022-12-11T08:07:52;19.40;38.60
45803;DHT22;31504;51.716;9.184;2022-12-11T08:10:52;19.40;38.50
45803;DHT22;31504;51.716;9.184;2022-12-11T08:13:53;19.40;38.40
45803;DHT22;31504;51.716;9.184;2022-12-11T08:16:54;19.50;38.40
45803;DHT22;31504;51.716;9.184;2022-12-11T08:19:54;19.50;38.40
45803;DHT22;31504;51.716;9.184;2022-12-11T08:22:55;19.50;38.50
45803;DHT22;31504;51.716;9.184;2022-12-11T08:25:55;19.50;38.60
45803;DHT22;31504;51.716;9.184;2022-12-11T08:28:56;19.50;38.80
45803;DHT22;31504;51.716;9.184;2022-12-11T08:31:57;19.50;38.90
45803;DHT22;31504;51.716;9.184;2022-12-11T08:34:57;19.50;39.00
45803;DHT22;31504;51.716;9.184;2022-12-11T08:37:58;19.50;39.00
45803;DHT22;31504;51.716;9.184;2022-12-11T08:41:06;19.50;39.10
45803;DHT22;31504;51.716;9.184;2022-12-11T08:44:09;19.50;39.20
45803;DHT22;31504;51.716;9.184;2022-12-11T08:47:09;19.50;39.20
45803;DHT22;31504;51.716;9.184;2022-12-11T08:50:10;19.50;39.30
45803;DHT22;31504;51.716;9.184;2022-12-11T08:53:10;19.50;39.30
45803;DHT22;31504;51.716;9.184;2022-12-11T08:56:12;19.50;39.30
45803;DHT22;31504;51.716;9.184;2022-12-11T08:59:13;19.50;39.40
45803;DHT22;31504;51.716;9.184;2022-12-11T09:02:14;19.50;39.40
45803;DHT22;31504;51.716;9.184;2022-12-11T09:05:14;19.50;39.50
45803;DHT22;31504;51.716;9.184;2022-12-11T09:08:15;19.50;39.50
45803;DHT22;31504;51.716;9.184;2022-12-11T09:11:16;19.60;39.50
45803;DHT22;31504;51.716;9.184;2022-12-11T09:14:17;19.60;39.50
45803;DHT22;31504;51.716;9.184;2022-12-11T09:17:18;19.50;39.40
45803;DHT22;31504;51.716;9.184;2022-12-11T09:20:18;19.50;39.40
45803;DHT22;31504;51.716;9.184;2022-12-11T09:23:19;19.50;39.50
45803;DHT22;31504;51.716;9.184;2022-12-11T09:26:19;19.50;39.40
45803;DHT22;31504;51.716;9.184;2022-12-11T09:29:20;19.50;39.30
45803;DHT22;31504;51.716;9.184;2022-12-11T09:32:20;19.50;39.30
45803;DHT22;31504;51.716;9.184;2022-12-11T09:35:21;19.50;39.20
45803;DHT22;31504;51.716;9.184;2022-12-11T09:38:21;19.50;39.10
45803;DHT22;31504;51.716;9.184;2022-12-11T09:47:33;19.50;39.00
45803;DHT22;31504;51.716;9.184;2022-12-11T09:50:34;19.40;39.00
45803;DHT22;31504;51.716;9.184;2022-12-11T09:53:35;19.40;38.90
45803;DHT22;31504;51.716;9.184;2022-12-11T09:56:44;19.50;38.90
45803;DHT22;31504;51.716;9.184;2022-12-11T10:06:27;19.50;38.90
45803;DHT22;31504;51.716;9.184;2022-12-11T10:09:33;19.50;38.80
45803;DHT22;31504;51.716;9.184;2022-12-11T10:12:39;19.50;38.80
45803;DHT22;31504;51.716;9.184;2022-12-11T10:15:52;19.50;38.80
45803;DHT22;31504;51.716;9.184;2022-12-11T10:18:53;19.50;38.80
45803;DHT22;31504;51.716;9.184;2022-12-11T10:21:55;19.50;38.90
45803;DHT22;31504;51.716;9.184;2022-12-11T10:27:56;19.50;39.00
45803;DHT22;31504;51.716;9.184;2022-12-11T10:31:01;19.50;38.90
45803;DHT22;31504;51.716;9.184;2022-12-11T10:34:07;19.50;38.90
45803;DHT22;31504;51.716;9.184;2022-12-11T10:37:10;19.50;38.80
45803;DHT22;31504;51.716;9.184;2022-12-11T10:40:11;19.50;38.70
45803;DHT22;31504;51.716;9.184;2022-12-11T10:43:12;19.50;38.90
45803;DHT22;31504;51.716;9.184;2022-12-11T10:46:20;19.50;38.80
45803;DHT22;31504;51.716;9.184;2022-12-11T10:49:24;19.50;38.80
45803;DHT22;31504;51.716;9.184;2022-12-11T10:52:36;19.50;38.80
45803;DHT22;31504;51.716;9.184;2022-12-11T10:55:42;19.50;38.80
45803;DHT22;31504;51.716;9.184;2022-12-11T10:58:46;19.50;38.80
45803;DHT22;31504;51.716;9.184;2022-12-11T11:01:48;19.50;38.90
45803;DHT22;31504;51.716;9.184;2022-12-11T11:04:48;19.50;39.60
45803;DHT22;31504;51.716;9.184;2022-12-11T11:07:49;19.60;39.10
45803;DHT22;31504;51.716;9.184;2022-12-11T11:10:54;19.60;39.10
45803;DHT22;31504;51.716;9.184;2022-12-11T11:17:14;19.60;39.30
45803;DHT22;31504;51.716;9.184;2022-12-11T11:20:16;19.60;39.30
45803;DHT22;31504;51.716;9.184;2022-12-11T11:23:18;19.50;39.30
45803;DHT22;31504;51.716;9.184;2022-12-11T11:26:19;19.60;39.40
45803;DHT22;31504;51.716;9.184;2022-12-11T11:29:25;19.50;39.40
45803;DHT22;31504;51.716;9.184;2022-12-11T11:32:31;19.50;39.40
45803;DHT22;31504;51.716;9.184;2022-12-11T11:35:32;19.50;39.40
45803;DHT22;31504;51.716;9.184;2022-12-11T11:41:45;19.60;39.50
45803;DHT22;31504;51.716;9.184;2022-12-11T11:51:29;19.60;39.60
45803;DHT22;31504;51.716;9.184;2022-12-11T11:54:32;19.60;39.60
45803;DHT22;31504;51.716;9.184;2022-12-11T11:57:53;19.60;39.70
45803;DHT22;31504;51.716;9.184;2022-12-11T12:00:56;19.60;39.70
45803;DHT22;31504;51.716;9.184;2022-12-11T12:03:56;19.60;39.70
45803;DHT22;31504;51.716;9.184;2022-12-11T12:22:55;19.60;39.70
45803;DHT22;31504;51.716;9.184;2022-12-11T12:26:09;19.60;39.70
45803;DHT22;31504;51.716;9.184;2022-12-11T12:35:33;19.60;39.60
45803;DHT22;31504;51.716;9.184;2022-12-11T12:38:52;19.60;39.70
45803;DHT22;31504;51.716;9.184;2022-12-11T12:41:56;19.60;39.70
45803;DHT22;31504;51.716;9.184;2022-12-11T12:44:58;19.60;39.80
45803;DHT22;31504;51.716;9.184;2022-12-11T12:48:00;19.60;40.00
45803;DHT22;31504;51.716;9.184;2022-12-11T12:51:01;19.60;40.00
45803;DHT22;31504;51.716;9.184;2022-12-11T12:54:02;19.60;40.00
45803;DHT22;31504;51.716;9.184;2022-12-11T12:57:03;19.60;39.90
45803;DHT22;31504;51.716;9.184;2022-12-11T13:00:05;19.60;39.80
45803;DHT22;31504;51.716;9.184;2022-12-11T13:03:17;19.60;39.80
45803;DHT22;31504;51.716;9.184;2022-12-11T13:09:32;19.60;39.80
45803;DHT22;31504;51.716;9.184;2022-12-11T13:12:40;19.60;39.80
45803;DHT22;31504;51.716;9.184;2022-12-11T13:15:41;19.60;39.80
45803;DHT22;31504;51.716;9.184;2022-12-11T13:18:44;19.60;39.80
45803;DHT22;31504;51.716;9.184;2022-12-11T13:21:53;19.60;39.80
45803;DHT22;31504;51.716;9.184;2022-12-11T13:28:05;19.50;39.70
45803;DHT22;31504;51.716;9.184;2022-12-11T13:31:22;19.50;39.60
45803;DHT22;31504;51.716;9.184;2022-12-11T13:34:24;19.60;39.70
45803;DHT22;31504;51.716;9.184;2022-12-11T13:37:28;19.60;39.60
45803;DHT22;31504;51.716;9.184;2022-12-11T13:40:36;19.60;39.60
45803;DHT22;31504;51.716;9.184;2022-12-11T13:43:37;19.60;39.50
45803;DHT22;31504;51.716;9.184;2022-12-11T13:46:41;19.60;39.50
45803;DHT22;31504;51.716;9.184;2022-12-11T13:49:43;19.50;39.40
45803;DHT22;31504;51.716;9.184;2022-12-11T13:52:51;19.50;39.40
45803;DHT22;31504;51.716;9.184;2022-12-11T13:56:03;19.60;39.40
45803;DHT22;31504;51.716;9.184;2022-12-11T13:59:04;19.60;39.40
45803;DHT22;31504;51.716;9.184;2022-12-11T14:02:14;19.60;39.40
45803;DHT22;31504;51.716;9.184;2022-12-11T14:05:17;19.60;39.40
45803;DHT22;31504;51.716;9.184;2022-12-11T14:08:30;19.60;39.40
45803;DHT22;31504;51.716;9.184;2022-12-11T14:11:34;19.60;39.40
45803;DHT22;31504;51.716;9.184;2022-12-11T14:14:39;19.60;39.50
45803;DHT22;31504;51.716;9.184;2022-12-11T14:17:41;19.60;39.50
45803;DHT22;31504;51.716;9.184;2022-12-11T14:20:42;19.50;39.40
45803;DHT22;31504;51.716;9.184;2022-12-11T14:23:49;19.50;39.40
45803;DHT22;31504;51.716;9.184;2022-12-11T14:26:50;19.60;39.60
45803;DHT22;31504;51.716;9.184;2022-12-11T14:29:51;19.60;39.90
45803;DHT22;31504;51.716;9.184;2022-12-11T14:32:54;19.60;40.00
45803;DHT22;31504;51.716;9.184;2022-12-11T14:35:56;19.60;40.00
45803;DHT22;31504;51.716;9.184;2022-12-11T14:39:04;19.70;40.10
45803;DHT22;31504;51.716;9.184;2022-12-11T14:42:07;19.60;40.00
45803;DHT22;31504;51.716;9.184;2022-12-11T14:48:24;19.50;40.50
45803;DHT22;31504;51.716;9.184;2022-12-11T14:51:31;19.50;40.50
45803;DHT22;31504;51.716;9.184;2022-12-11T14:54:34;19.50;40.60
45803;DHT22;31504;51.716;9.184;2022-12-11T14:57:38;19.50;40.30
45803;DHT22;31504;51.716;9.184;2022-12-11T15:00:39;19.60;40.20
45803;DHT22;31504;51.716;9.184;2022-12-11T15:03:40;19.60;40.10
45803;DHT22;31504;51.716;9.184;2022-12-11T15:06:42;19.60;40.00
45803;DHT22;31504;51.716;9.184;2022-12-11T15:09:45;19.60;40.00
45803;DHT22;31504;51.716;9.184;2022-12-11T15:12:45;19.60;40.00
45803;DHT22;31504;51.716;9.184;2022-12-11T15:15:46;19.60;40.00
45803;DHT22;31504;51.716;9.184;2022-12-11T15:18:47;19.60;40.00
45803;DHT22;31504;51.716;9.184;2022-12-11T15:21:48;19.60;40.00
45803;DHT22;31504;51.716;9.184;2022-12-11T15:24:50;19.60;40.10
45803;DHT22;31504;51.716;9.184;2022-12-11T15:27:52;19.70;40.10
45803;DHT22;31504;51.716;9.184;2022-12-11T15:30:54;19.70;40.10
45803;DHT22;31504;51.716;9.184;2022-12-11T15:33:55;19.70;40.10
45803;DHT22;31504;51.716;9.184;2022-12-11T15:36:56;19.70;40.10
45803;DHT22;31504;51.716;9.184;2022-12-11T15:39:58;19.60;40.00
45803;DHT22;31504;51.716;9.184;2022-12-11T15:42:59;19.60;40.00
45803;DHT22;31504;51.716;9.184;2022-12-11T15:46:01;19.60;40.00
45803;DHT22;31504;51.716;9.184;2022-12-11T15:49:04;19.60;40.00
45803;DHT22;31504;51.716;9.184;2022-12-11T15:52:09;19.70;40.10
45803;DHT22;31504;51.716;9.184;2022-12-11T15:55:09;19.60;40.10
45803;DHT22;31504;51.716;9.184;2022-12-11T15:58:20;19.60;40.00
45803;DHT22;31504;51.716;9.184;2022-12-11T16:01:22;19.60;40.00
45803;DHT22;31504;51.716;9.184;2022-12-11T16:04:22;19.70;40.10
45803;DHT22;31504;51.716;9.184;2022-12-11T16:07:24;19.60;40.00
45803;DHT22;31504;51.716;9.184;2022-12-11T16:10:24;19.60;40.10
45803;DHT22;31504;51.716;9.184;2022-12-11T16:13:25;19.60;40.20
45803;DHT22;31504;51.716;9.184;2022-12-11T16:16:26;19.70;40.30
45803;DHT22;31504;51.716;9.184;2022-12-11T16:19:26;19.70;40.30
45803;DHT22;31504;51.716;9.184;2022-12-11T16:22:27;19.70;40.40
45803;DHT22;31504;51.716;9.184;2022-12-11T16:25:28;19.70;40.40
45803;DHT22;31504;51.716;9.184;2022-12-11T16:28:28;19.70;40.50
45803;DHT22;31504;51.716;9.184;2022-12-11T16:31:29;19.70;40.50
45803;DHT22;31504;51.716;9.184;2022-12-11T16:34:29;19.70;40.40
45803;DHT22;31504;51.716;9.184;2022-12-11T16:37:30;19.70;40.40
45803;DHT22;31504;51.716;9.184;2022-12-11T16:40:30;19.70;40.40
45803;DHT22;31504;51.716;9.184;2022-12-11T16:43:31;19.70;40.30
45803;DHT22;31504;51.716;9.184;2022-12-11T16:46:32;19.70;40.40
45803;DHT22;31504;51.716;9.184;2022-12-11T16:49:32;19.70;40.40
45803;DHT22;31504;51.716;9.184;2022-12-11T16:52:33;19.70;40.30
45803;DHT22;31504;51.716;9.184;2022-12-11T16:55:33;19.80;40.30
45803;DHT22;31504;51.716;9.184;2022-12-11T16:58:34;19.80;40.10
45803;DHT22;31504;51.716;9.184;2022-12-11T17:01:34;19.80;40.10
45803;DHT22;31504;51.716;9.184;2022-12-11T17:04:38;19.70;40.10
45803;DHT22;31504;51.716;9.184;2022-12-11T17:07:38;19.80;40.10
45803;DHT22;31504;51.716;9.184;2022-12-11T17:10:40;19.70;40.10
45803;DHT22;31504;51.716;9.184;2022-12-11T17:13:41;19.80;40.10
45803;DHT22;31504;51.716;9.184;2022-12-11T17:16:41;19.70;40.10
45803;DHT22;31504;51.716;9.184;2022-12-11T17:19:42;19.70;40.10
45803;DHT22;31504;51.716;9.184;2022-12-11T17:22:42;19.70;40.10
45803;DHT22;31504;51.716;9.184;2022-12-11T17:25:43;19.70;40.10
45803;DHT22;31504;51.716;9.184;2022-12-11T17:28:44;19.80;40.00
45803;DHT22;31504;51.716;9.184;2022-12-11T17:31:45;19.80;40.10
45803;DHT22;31504;51.716;9.184;2022-12-11T17:34:45;19.70;40.00
45803;DHT22;31504;51.716;9.184;2022-12-11T17:37:47;19.70;39.90
45803;DHT22;31504;51.716;9.184;2022-12-11T17:40:48;19.70;39.80
45803;DHT22;31504;51.716;9.184;2022-12-11T17:43:49;19.70;39.80
45803;DHT22;31504;51.716;9.184;2022-12-11T17:46:50;19.70;40.40
45803;DHT22;31504;51.716;9.184;2022-12-11T17:49:50;19.70;39.80
45803;DHT22;31504;51.716;9.184;2022-12-11T17:52:51;19.70;39.80
45803;DHT22;31504;51.716;9.184;2022-12-11T17:55:51;19.70;39.70
45803;DHT22;31504;51.716;9.184;2022-12-11T17:58:52;19.70;39.70
45803;DHT22;31504;51.716;9.184;2022-12-11T18:01:52;19.80;39.70
45803;DHT22;31504;51.716;9.184;2022-12-11T18:04:53;19.70;39.70
45803;DHT22;31504;51.716;9.184;2022-12-11T18:07:54;19.70;39.60
45803;DHT22;31504;51.716;9.184;2022-12-11T18:10:55;19.70;39.50
45803;DHT22;31504;51.716;9.184;2022-12-11T18:13:55;19.70;39.50
45803;DHT22;31504;51.716;9.184;2022-12-11T18:16:56;19.80;39.50
45803;DHT22;31504;51.716;9.184;2022-12-11T18:19:57;19.70;39.50
45803;DHT22;31504;51.716;9.184;2022-12-11T18:22:57;19.70;39.80
45803;DHT22;31504;51.716;9.184;2022-12-11T18:25:58;19.60;40.00
45803;DHT22;31504;51.716;9.184;2022-12-11T18:28:58;19.60;40.00
45803;DHT22;31504;51.716;9.184;2022-12-11T18:31:58;19.60;40.00
45803;DHT22;31504;51.716;9.184;2022-12-11T18:34:59;19.60;40.00
45803;DHT22;31504;51.716;9.184;2022-12-11T18:37:59;19.60;40.00
45803;DHT22;31504;51.716;9.184;2022-12-11T18:41:03;19.60;39.90
45803;DHT22;31504;51.716;9.184;2022-12-11T18:44:05;19.60;40.00
45803;DHT22;31504;51.716;9.184;2022-12-11T18:47:06;19.50;39.70
45803;DHT22;31504;51.716;9.184;2022-12-11T18:50:06;19.50;39.60
45803;DHT22;31504;51.716;9.184;2022-12-11T18:53:07;19.50;39.50
45803;DHT22;31504;51.716;9.184;2022-12-11T18:56:09;19.50;39.50
45803;DHT22;31504;51.716;9.184;2022-12-11T18:59:11;19.50;39.40
45803;DHT22;31504;51.716;9.184;2022-12-11T19:02:14;19.50;39.30
45803;DHT22;31504;51.716;9.184;2022-12-11T19:05:15;19.50;39.30
45803;DHT22;31504;51.716;9.184;2022-12-11T19:08:15;19.50;39.20
45803;DHT22;31504;51.716;9.184;2022-12-11T19:11:17;19.50;39.10
45803;DHT22;31504;51.716;9.184;2022-12-11T19:14:19;19.50;39.00
45803;DHT22;31504;51.716;9.184;2022-12-11T19:17:19;19.50;39.00
45803;DHT22;31504;51.716;9.184;2022-12-11T19:20:19;19.50;39.00
45803;DHT22;31504;51.716;9.184;2022-12-11T19:23:20;19.50;38.90
45803;DHT22;31504;51.716;9.184;2022-12-11T19:26:22;19.50;39.00
45803;DHT22;31504;51.716;9.184;2022-12-11T19:29:24;19.50;38.90
45803;DHT22;31504;51.716;9.184;2022-12-11T19:32:25;19.50;38.90
45803;DHT22;31504;51.716;9.184;2022-12-11T19:35:25;19.50;38.90
45803;DHT22;31504;51.716;9.184;2022-12-11T19:38:26;19.50;38.90
45803;DHT22;31504;51.716;9.184;2022-12-11T19:41:26;19.50;38.80
45803;DHT22;31504;51.716;9.184;2022-12-11T19:44:27;19.50;38.70
45803;DHT22;31504;51.716;9.184;2022-12-11T19:47:27;19.50;38.70
45803;DHT22;31504;51.716;9.184;2022-12-11T19:50:28;19.40;38.60
45803;DHT22;31504;51.716;9.184;2022-12-11T19:53:28;19.40;38.60
45803;DHT22;31504;51.716;9.184;2022-12-11T19:56:29;19.40;38.60
45803;DHT22;31504;51.716;9.184;2022-12-11T19:59:30;19.40;38.50
45803;DHT22;31504;51.716;9.184;2022-12-11T20:02:31;19.40;38.60
45803;DHT22;31504;51.716;9.184;2022-12-11T20:05:31;19.50;38.50
45803;DHT22;31504;51.716;9.184;2022-12-11T20:08:32;19.50;38.50
45803;DHT22;31504;51.716;9.184;2022-12-11T20:11:32;19.40;38.40
45803;DHT22;31504;51.716;9.184;2022-12-11T20:14:33;19.40;38.50
45803;DHT22;31504;51.716;9.184;2022-12-11T20:17:33;19.50;38.50
45803;DHT22;31504;51.716;9.184;2022-12-11T20:20:35;19.40;38.40